Time;durP1;ratioP1;P1;durP2;ratioP2;P2;SDS_P1;SDS_P2;PMS_P1;PMS_P2;Temp;Humidity;BMP_temperature;BMP_pressure;BME280_temperature;BME280_humidity;BME280_pressure;Samples;Min_cycle;Max_cycle;Signal;HPM_P1;HPM_P2
2022/10/09 00:01:57;;;;;;;6.78;4.20;;;16.40;90.80;;;;;;1930298;73;21033;-59
2022/10/09 00:04:27;;;;;;;7.30;4.80;;;16.30;90.80;;;;;;1936455;73;21468;-59
2022/10/09 00:06:57;;;;;;;5.40;4.33;;;16.30;90.80;;;;;;1930760;73;21096;-59
2022/10/09 00:09:27;;;;;;;5.33;4.55;;;16.30;90.80;;;;;;1923772;73;21484;-59
2022/10/09 00:11:56;;;;;;;5.97;4.35;;;16.20;90.90;;;;;;1949540;73;21115;-59
2022/10/09 00:14:26;;;;;;;4.47;4.08;;;16.20;90.90;;;;;;1947983;73;21010;-59
2022/10/09 00:16:56;;;;;;;9.35;4.72;;;16.20;90.90;;;;;;1949342;73;21034;-59
2022/10/09 00:19:25;;;;;;;5.17;4.65;;;16.20;90.90;;;;;;1936639;73;21460;-59
2022/10/09 00:21:55;;;;;;;5.75;4.37;;;16.20;91.00;;;;;;1935555;73;21042;-59
2022/10/09 00:24:25;;;;;;;6.40;4.35;;;16.20;91.00;;;;;;1936657;73;21476;-59
2022/10/09 00:26:55;;;;;;;5.95;4.12;;;16.10;91.00;;;;;;1924770;73;21107;-59
2022/10/09 00:29:25;;;;;;;5.30;4.42;;;16.20;91.00;;;;;;1925864;73;21029;-59
2022/10/09 00:31:54;;;;;;;5.05;3.98;;;16.20;91.00;;;;;;1941343;73;21465;-59
2022/10/09 00:34:24;;;;;;;5.60;4.50;;;16.10;91.00;;;;;;1931448;73;21014;-59
2022/10/09 00:36:54;;;;;;;5.22;4.45;;;16.10;91.10;;;;;;1934816;73;21530;-60
2022/10/09 00:39:24;;;;;;;9.08;4.80;;;16.10;91.10;;;;;;1949921;73;21042;-59
2022/10/09 00:41:54;;;;;;;4.65;4.10;;;16.10;91.10;;;;;;1929877;73;21120;-59
2022/10/09 00:44:48;;;;;;;9.35;4.65;;;16.10;91.10;;;;;;1943699;73;21092;-59
2022/10/09 00:47:42;;;;;;;5.93;4.10;;;16.10;91.20;;;;;;1951900;73;21030;-59
2022/10/09 00:50:17;;;;;;;6.08;4.78;;;16.10;91.10;;;;;;1951550;73;21130;-59
2022/10/09 00:52:49;;;;;;;6.05;4.37;;;16.10;91.10;;;;;;1951583;73;21037;-59
2022/10/09 00:55:20;;;;;;;8.50;5.08;;;16.00;91.10;;;;;;1951518;73;21030;-59
2022/10/09 00:57:51;;;;;;;6.65;5.22;;;16.00;91.10;;;;;;1952945;73;21006;-59
2022/10/09 01:00:21;;;;;;;7.03;4.85;;;15.90;91.10;;;;;;1940642;73;21057;-59
2022/10/09 01:02:51;;;;;;;6.40;5.37;;;15.90;91.20;;;;;;1934315;73;21402;-59
2022/10/09 01:05:23;;;;;;;8.10;5.47;;;15.90;91.30;;;;;;1938823;73;21086;-59
2022/10/09 01:08:05;;;;;;;6.80;4.65;;;15.90;91.30;;;;;;1937808;72;21144;-59
2022/10/09 01:10:46;;;;;;;10.90;5.35;;;15.90;91.30;;;;;;1937003;73;21107;-59
2022/10/09 01:13:30;;;;;;;5.75;4.72;;;15.90;91.30;;;;;;1941652;73;21073;-60
2022/10/09 01:16:11;;;;;;;8.73;5.47;;;15.80;91.30;;;;;;1937943;73;21421;-59
2022/10/09 01:19:01;;;;;;;7.10;4.75;;;15.80;91.30;;;;;;1932793;73;21108;-59
2022/10/09 01:21:36;;;;;;;7.22;5.45;;;15.80;91.30;;;;;;1934730;73;21385;-59
2022/10/09 01:24:22;;;;;;;14.28;5.78;;;15.80;91.40;;;;;;1941756;74;21461;-59
2022/10/09 01:26:54;;;;;;;7.92;4.90;;;15.70;91.40;;;;;;1937778;73;21479;-59
2022/10/09 01:29:26;;;;;;;4.70;3.85;;;15.70;91.30;;;;;;1951556;73;21554;-59
2022/10/09 01:31:58;;;;;;;7.67;5.03;;;15.70;91.30;;;;;;1937554;73;21027;-59
2022/10/09 01:34:29;;;;;;;10.80;6.20;;;15.60;91.40;;;;;;1936584;73;21100;-59
2022/10/09 01:37:00;;;;;;;6.87;4.67;;;15.70;91.60;;;;;;1941597;74;21108;-59
2022/10/09 01:39:32;;;;;;;7.00;5.30;;;15.60;91.60;;;;;;1942100;74;21038;-59
2022/10/09 01:42:02;;;;;;;6.37;4.80;;;15.70;91.70;;;;;;1935022;73;21072;-59
2022/10/09 01:44:33;;;;;;;5.87;5.08;;;15.60;91.70;;;;;;1936760;73;21128;-59
2022/10/09 01:47:03;;;;;;;7.90;4.75;;;15.60;91.70;;;;;;1936957;73;21035;-59
2022/10/09 01:49:50;;;;;;;6.05;4.42;;;15.60;91.70;;;;;;1945390;73;21046;-59
2022/10/09 01:52:37;;;;;;;5.60;4.95;;;15.60;91.70;;;;;;1945401;73;21038;-59
2022/10/09 01:55:22;;;;;;;5.83;4.47;;;15.60;91.60;;;;;;1923374;73;21050;-59
2022/10/09 01:57:54;;;;;;;6.55;4.85;;;15.60;91.70;;;;;;1947615;73;21163;-60
2022/10/09 02:00:24;;;;;;;8.25;5.22;;;15.60;91.70;;;;;;1933749;73;21465;-59
2022/10/09 02:02:55;;;;;;;7.22;5.42;;;15.60;91.80;;;;;;1930174;73;21051;-59
2022/10/09 02:05:27;;;;;;;8.60;5.28;;;15.60;91.80;;;;;;1936934;73;21034;-59
2022/10/09 02:07:58;;;;;;;9.70;5.67;;;15.60;91.80;;;;;;1926793;73;21108;-59
2022/10/09 02:10:29;;;;;;;8.15;4.78;;;15.50;91.90;;;;;;1927514;73;21120;-59
2022/10/09 02:13:00;;;;;;;8.20;5.17;;;15.50;91.90;;;;;;1920893;73;21111;-59
2022/10/09 02:15:32;;;;;;;5.80;4.37;;;15.50;92.00;;;;;;1944544;73;21010;-59
2022/10/09 02:18:04;;;;;;;9.10;5.22;;;15.60;92.00;;;;;;1951166;73;20986;-59
2022/10/09 02:20:36;;;;;;;5.25;4.60;;;15.50;92.00;;;;;;1942461;73;21092;-59
2022/10/09 02:23:08;;;;;;;7.22;5.50;;;15.50;92.10;;;;;;1933575;73;21030;-59
2022/10/09 02:25:38;;;;;;;5.37;4.78;;;15.50;92.10;;;;;;1941886;73;21505;-59
2022/10/09 02:28:08;;;;;;;7.37;4.33;;;15.50;92.10;;;;;;1939320;73;21538;-59
2022/10/09 02:30:46;;;;;;;7.83;5.20;;;15.50;92.10;;;;;;1938039;73;21038;-60
2022/10/09 02:33:15;;;;;;;5.30;4.42;;;15.50;92.20;;;;;;1937277;73;21017;-59
2022/10/09 02:35:46;;;;;;;5.50;4.40;;;15.50;92.10;;;;;;1936258;73;21050;-58
2022/10/09 02:38:16;;;;;;;6.47;4.67;;;15.40;92.10;;;;;;1939757;73;21053;-59
2022/10/09 02:40:46;;;;;;;5.25;4.62;;;15.40;92.20;;;;;;1937903;73;21026;-59
2022/10/09 02:43:15;;;;;;;8.48;5.12;;;15.50;92.30;;;;;;1941958;73;21042;-59
2022/10/09 02:45:45;;;;;;;7.53;5.00;;;15.50;92.30;;;;;;1937376;73;21046;-59
2022/10/09 02:48:15;;;;;;;5.80;5.00;;;15.50;92.20;;;;;;1936739;73;21049;-59
2022/10/09 02:50:45;;;;;;;5.87;4.78;;;15.50;92.30;;;;;;1941418;73;21038;-59
2022/10/09 02:53:14;;;;;;;8.88;5.10;;;15.50;92.20;;;;;;1936776;73;21038;-59
2022/10/09 02:55:44;;;;;;;6.80;5.65;;;15.50;92.30;;;;;;1941595;73;21540;-59
2022/10/09 02:58:14;;;;;;;6.62;5.22;;;15.50;92.20;;;;;;1941515;73;21002;-59
2022/10/09 03:00:45;;;;;;;7.35;5.47;;;15.50;92.30;;;;;;1926223;73;21069;-59
2022/10/09 03:03:14;;;;;;;8.53;5.42;;;15.50;92.30;;;;;;1937023;73;21091;-59
2022/10/09 03:05:44;;;;;;;12.45;6.50;;;15.50;92.30;;;;;;1939609;73;21023;-60
2022/10/09 03:08:14;;;;;;;8.18;6.08;;;15.50;92.30;;;;;;1941142;73;21583;-59
2022/10/09 03:10:44;;;;;;;9.25;5.78;;;15.50;92.30;;;;;;1937868;73;21108;-60
2022/10/09 03:13:14;;;;;;;9.68;5.95;;;15.50;92.20;;;;;;1941937;74;21092;-59
2022/10/09 03:15:43;;;;;;;7.33;6.47;;;15.50;92.30;;;;;;1933431;73;21026;-59
2022/10/09 03:18:25;;;;;;;7.80;5.85;;;15.50;92.30;;;;;;1941541;73;21488;-59
2022/10/09 03:20:54;;;;;;;6.45;5.50;;;15.50;92.40;;;;;;1967851;72;21151;-60
2022/10/09 03:23:24;;;;;;;8.70;5.90;;;15.40;92.30;;;;;;1963351;72;21096;-59
2022/10/09 03:25:58;;;;;;;5.90;5.30;;;15.40;92.30;;;;;;1962502;72;21029;-60
2022/10/09 03:28:29;;;;;;;14.40;6.03;;;15.40;92.30;;;;;;1970492;72;21084;-59
2022/10/09 03:30:59;;;;;;;9.38;5.42;;;15.40;92.40;;;;;;1963449;72;21177;-60
2022/10/09 03:33:28;;;;;;;8.45;5.55;;;15.40;92.40;;;;;;1974328;72;21089;-59
2022/10/09 03:35:58;;;;;;;7.35;5.12;;;15.40;92.50;;;;;;1972109;73;21022;-59
2022/10/09 03:38:28;;;;;;;6.22;5.28;;;15.40;92.40;;;;;;1958686;72;21095;-59
2022/10/09 03:40:59;;;;;;;5.80;4.90;;;15.40;92.50;;;;;;1968681;72;21013;-59
2022/10/09 03:43:29;;;;;;;7.87;5.62;;;15.40;92.50;;;;;;1960493;72;21147;-59
2022/10/09 03:45:59;;;;;;;7.03;5.47;;;15.40;92.60;;;;;;1952651;73;21475;-59
2022/10/09 03:48:29;;;;;;;7.28;5.47;;;15.40;92.80;;;;;;1971816;72;21088;-60
2022/10/09 03:50:59;;;;;;;7.35;5.45;;;15.40;92.60;;;;;;1971921;72;21033;-59
2022/10/09 03:53:29;;;;;;;7.25;5.90;;;15.40;92.60;;;;;;1968525;72;21046;-59
2022/10/09 03:55:58;;;;;;;9.65;6.25;;;15.40;92.50;;;;;;1966483;72;21033;-60
2022/10/09 03:58:28;;;;;;;7.08;6.03;;;15.40;92.50;;;;;;1952825;73;21446;-59
2022/10/09 04:00:58;;;;;;;10.00;6.60;;;15.30;92.60;;;;;;1960530;72;21013;-59
2022/10/09 04:03:28;;;;;;;7.60;5.95;;;15.30;92.60;;;;;;1960647;72;21043;-59
2022/10/09 04:05:58;;;;;;;7.53;5.85;;;15.20;92.60;;;;;;1972751;73;21027;-60
2022/10/09 04:08:27;;;;;;;10.78;6.65;;;15.20;92.60;;;;;;1962052;72;21028;-59
2022/10/09 04:10:59;;;;;;;12.20;6.62;;;15.20;92.70;;;;;;1952730;73;21013;-59
2022/10/09 04:13:29;;;;;;;7.67;6.42;;;15.20;92.70;;;;;;1963682;72;21157;-59
2022/10/09 04:15:59;;;;;;;13.40;6.97;;;15.30;92.70;;;;;;1961106;72;21116;-59
2022/10/09 04:18:28;;;;;;;10.03;5.83;;;15.30;92.80;;;;;;1959534;72;21029;-59
2022/10/09 04:20:58;;;;;;;10.82;7.40;;;15.30;92.80;;;;;;1968646;72;21461;-60
2022/10/09 04:23:28;;;;;;;9.98;7.17;;;15.30;92.80;;;;;;1952708;73;21033;-59
2022/10/09 04:25:59;;;;;;;11.20;8.18;;;15.30;92.70;;;;;;1971048;72;21094;-60
2022/10/09 04:28:30;;;;;;;9.48;6.72;;;15.30;92.70;;;;;;1970514;72;21421;-59
2022/10/09 04:31:00;;;;;;;10.03;6.83;;;15.30;92.80;;;;;;1973756;72;21096;-59
2022/10/09 04:33:30;;;;;;;9.98;6.53;;;15.30;93.10;;;;;;1971520;72;21100;-59
2022/10/09 04:36:00;;;;;;;8.15;5.60;;;15.30;92.80;;;;;;1966328;72;21042;-59
2022/10/09 04:38:31;;;;;;;10.28;6.15;;;15.30;92.90;;;;;;1965207;72;21549;-59
2022/10/09 04:41:07;;;;;;;9.68;6.58;;;15.30;92.90;;;;;;1961536;72;21640;-59
2022/10/09 04:43:37;;;;;;;8.40;6.20;;;15.30;92.90;;;;;;1964946;72;21090;-59
2022/10/09 04:46:08;;;;;;;10.25;6.72;;;15.30;92.90;;;;;;1952540;72;21461;-60
2022/10/09 04:48:42;;;;;;;8.83;6.30;;;15.30;92.80;;;;;;1963952;72;21092;-59
2022/10/09 04:51:12;;;;;;;10.85;6.78;;;15.30;92.80;;;;;;1961341;72;21469;-59
2022/10/09 04:53:42;;;;;;;8.65;6.45;;;15.40;92.90;;;;;;1962015;72;21451;-60
2022/10/09 04:56:18;;;;;;;12.70;7.70;;;15.40;93.00;;;;;;1965988;72;21106;-59
2022/10/09 04:58:48;;;;;;;9.58;6.37;;;15.40;93.00;;;;;;1956308;72;21120;-59
2022/10/09 05:01:21;;;;;;;11.50;7.83;;;15.40;93.00;;;;;;1952575;73;21041;-59
2022/10/09 05:03:51;;;;;;;10.60;6.75;;;15.40;92.90;;;;;;1954447;73;21467;-59
2022/10/09 05:06:21;;;;;;;14.13;7.37;;;15.40;92.90;;;;;;1964102;72;21496;-59
2022/10/09 05:08:52;;;;;;;10.80;6.95;;;15.50;93.00;;;;;;1974081;72;21480;-59
2022/10/09 05:11:24;;;;;;;13.22;9.00;;;15.50;93.00;;;;;;1971406;72;21058;-59
2022/10/09 05:13:55;;;;;;;11.95;8.68;;;15.50;93.00;;;;;;1972777;73;21047;-59
2022/10/09 05:16:27;;;;;;;18.00;11.40;;;15.50;93.10;;;;;;1969403;72;21035;-59
2022/10/09 05:18:59;;;;;;;13.55;8.85;;;15.50;93.00;;;;;;1961288;72;21146;-59
2022/10/09 05:21:29;;;;;;;18.98;10.55;;;15.50;93.00;;;;;;1963735;72;21522;-60
2022/10/09 05:23:58;;;;;;;21.48;11.45;;;15.60;93.10;;;;;;1969304;72;21021;-59
2022/10/09 05:26:28;;;;;;;16.67;11.55;;;15.60;93.10;;;;;;1963788;72;21099;-59
2022/10/09 05:28:58;;;;;;;17.17;11.97;;;15.60;93.10;;;;;;1956441;72;21523;-59
2022/10/09 05:31:29;;;;;;;12.90;9.68;;;15.60;93.10;;;;;;1966903;72;21437;-59
2022/10/09 05:34:00;;;;;;;16.02;10.10;;;15.60;93.10;;;;;;1960575;72;21025;-60
2022/10/09 05:36:30;;;;;;;14.20;10.45;;;15.60;93.10;;;;;;1971672;72;21119;-59
2022/10/09 05:39:00;;;;;;;18.35;11.12;;;15.60;93.20;;;;;;1969382;72;21001;-60
2022/10/09 05:41:30;;;;;;;11.85;9.38;;;15.60;93.30;;;;;;1964993;72;21100;-59
2022/10/09 05:44:03;;;;;;;11.33;9.83;;;15.60;93.30;;;;;;1973032;72;21465;-59
2022/10/09 05:46:33;;;;;;;11.18;8.38;;;15.60;93.30;;;;;;1966747;72;20993;-59
2022/10/09 05:49:05;;;;;;;13.72;9.00;;;15.60;93.40;;;;;;1961545;72;21512;-59
2022/10/09 05:51:37;;;;;;;15.72;8.43;;;15.60;93.50;;;;;;1964562;72;21476;-60
2022/10/09 05:54:06;;;;;;;13.10;8.18;;;15.60;93.50;;;;;;1972585;72;21046;-59
2022/10/09 05:56:38;;;;;;;11.03;7.17;;;15.60;93.40;;;;;;1972895;72;21058;-59
2022/10/09 05:59:10;;;;;;;9.08;7.42;;;15.50;93.40;;;;;;1972563;72;21526;-59
2022/10/09 06:01:45;;;;;;;13.35;9.28;;;15.60;93.50;;;;;;1970629;72;21046;-60
2022/10/09 06:04:20;;;;;;;18.02;9.70;;;15.60;93.50;;;;;;1964884;72;21029;-60
2022/10/09 06:06:50;;;;;;;12.65;9.08;;;15.60;93.50;;;;;;1971677;72;21034;-59
2022/10/09 06:09:22;;;;;;;13.85;9.30;;;15.60;93.50;;;;;;1970002;72;21038;-59
2022/10/09 06:11:52;;;;;;;21.77;10.80;;;15.60;93.50;;;;;;1967398;72;21105;-60
2022/10/09 06:14:23;;;;;;;14.83;9.23;;;15.60;93.50;;;;;;1961624;72;21018;-60
2022/10/09 06:16:53;;;;;;;15.75;10.28;;;15.60;93.60;;;;;;1973659;72;21085;-59
2022/10/09 06:19:23;;;;;;;14.65;9.98;;;15.60;93.60;;;;;;1966015;72;21011;-60
2022/10/09 06:21:52;;;;;;;14.25;9.48;;;15.60;93.60;;;;;;1960987;72;21511;-60
2022/10/09 06:24:24;;;;;;;15.65;9.40;;;15.60;93.60;;;;;;1957685;72;21550;-59
2022/10/09 06:26:54;;;;;;;17.85;11.45;;;15.60;93.70;;;;;;1954031;72;21099;-59
2022/10/09 06:29:24;;;;;;;17.42;12.50;;;15.70;93.70;;;;;;1952789;73;20997;-59
2022/10/09 06:31:54;;;;;;;15.20;10.35;;;15.70;93.80;;;;;;1952583;73;21042;-59
2022/10/09 06:34:24;;;;;;;14.03;10.78;;;15.70;93.70;;;;;;1952662;73;21480;-59
2022/10/09 06:36:53;;;;;;;14.85;11.15;;;15.70;93.70;;;;;;1967046;72;21479;-60
2022/10/09 06:39:25;;;;;;;13.22;10.90;;;15.70;93.70;;;;;;1965049;72;21029;-59
2022/10/09 06:41:54;;;;;;;24.70;12.80;;;15.70;93.70;;;;;;1967983;72;21015;-59
2022/10/09 06:44:32;;;;;;;16.65;11.33;;;15.70;94.30;;;;;;1959061;72;21132;-59
2022/10/09 06:47:01;;;;;;;25.00;15.85;;;15.70;94.10;;;;;;1964265;72;21027;-60
2022/10/09 06:49:31;;;;;;;27.62;18.57;;;15.60;94.00;;;;;;1960317;72;21501;-59
2022/10/09 06:52:01;;;;;;;27.77;19.20;;;15.60;94.00;;;;;;1968192;72;21107;-60
2022/10/09 06:54:31;;;;;;;22.50;16.42;;;15.60;94.10;;;;;;1971625;72;21107;-59
2022/10/09 06:57:01;;;;;;;27.93;16.00;;;15.50;94.00;;;;;;1972472;72;21088;-60
2022/10/09 06:59:30;;;;;;;24.85;17.17;;;15.50;94.10;;;;;;1966801;72;21175;-59
2022/10/09 07:02:00;;;;;;;25.02;18.50;;;15.50;93.90;;;;;;1971279;72;21038;-59
2022/10/09 07:04:30;;;;;;;24.67;17.98;;;15.50;94.00;;;;;;1959776;72;21029;-60
2022/10/09 07:06:59;;;;;;;18.00;14.43;;;15.50;94.00;;;;;;1969881;72;21038;-59
2022/10/09 07:09:29;;;;;;;16.67;13.00;;;15.50;94.10;;;;;;1974207;72;21088;-60
2022/10/09 07:12:00;;;;;;;28.00;15.30;;;15.50;94.10;;;;;;1967352;72;21001;-59
2022/10/09 07:14:30;;;;;;;22.32;16.23;;;15.60;94.10;;;;;;1960068;72;21017;-60
2022/10/09 07:16:59;;;;;;;20.75;15.75;;;15.60;94.10;;;;;;1963696;72;21034;-59
2022/10/09 07:19:29;;;;;;;23.40;16.12;;;15.60;94.10;;;;;;1959005;72;21033;-59
2022/10/09 07:21:59;;;;;;;15.13;11.48;;;15.60;94.10;;;;;;1964742;72;21031;-59
2022/10/09 07:24:28;;;;;;;16.87;10.65;;;15.60;94.20;;;;;;1973249;73;21096;-59
2022/10/09 07:26:58;;;;;;;15.72;11.40;;;15.70;94.20;;;;;;1973017;72;21631;-59
2022/10/09 07:29:28;;;;;;;15.88;10.48;;;15.70;94.10;;;;;;1962848;72;21054;-59
2022/10/09 07:31:58;;;;;;;19.90;12.33;;;15.70;94.20;;;;;;1960038;72;21033;-59
2022/10/09 07:34:28;;;;;;;13.62;10.18;;;15.70;94.30;;;;;;1964078;72;21079;-59
2022/10/09 07:36:58;;;;;;;16.60;12.35;;;15.70;94.10;;;;;;1966401;72;20997;-59
2022/10/09 07:39:27;;;;;;;18.05;11.18;;;15.70;94.10;;;;;;1961756;72;21024;-59
2022/10/09 07:41:57;;;;;;;22.10;11.78;;;15.70;94.20;;;;;;1955588;73;21431;-59
2022/10/09 07:44:27;;;;;;;18.75;11.78;;;15.70;94.20;;;;;;1960521;72;21046;-59
2022/10/09 07:46:57;;;;;;;22.22;13.65;;;15.70;94.20;;;;;;1973829;72;21035;-58
2022/10/09 07:49:26;;;;;;;19.48;12.73;;;15.70;94.30;;;;;;1966070;72;21162;-59
2022/10/09 07:51:56;;;;;;;26.87;18.02;;;15.70;94.40;;;;;;1952688;73;21098;-59
2022/10/09 07:54:25;;;;;;;20.05;12.40;;;15.70;94.40;;;;;;1965245;72;21194;-59
2022/10/09 07:56:55;;;;;;;16.57;11.53;;;15.70;94.60;;;;;;1963821;72;21100;-60
2022/10/09 07:59:25;;;;;;;21.07;13.25;;;15.70;94.70;;;;;;1962848;72;21158;-59
2022/10/09 08:01:55;;;;;;;15.78;11.20;;;15.70;94.60;;;;;;1969900;72;21100;-59
2022/10/09 08:04:25;;;;;;;18.07;11.73;;;15.60;94.50;;;;;;1972396;72;21096;-59
2022/10/09 08:06:57;;;;;;;14.70;11.55;;;15.60;94.40;;;;;;1964586;72;21033;-60
2022/10/09 08:09:26;;;;;;;16.35;10.58;;;15.70;94.50;;;;;;1972757;73;21026;-59
2022/10/09 08:11:56;;;;;;;16.85;11.63;;;15.70;94.50;;;;;;1967741;72;21026;-60
2022/10/09 08:14:26;;;;;;;15.78;9.45;;;15.70;94.50;;;;;;1964318;72;21034;-60
2022/10/09 08:16:55;;;;;;;9.18;7.45;;;15.80;94.40;;;;;;1972965;72;21100;-60
2022/10/09 08:19:25;;;;;;;11.85;7.80;;;15.90;94.50;;;;;;1963867;72;21563;-61
2022/10/09 08:22:16;;;;;;;15.35;10.98;;;15.90;94.50;;;;;;1948451;72;21029;-60
2022/10/09 08:24:57;;;;;;;16.10;10.08;;;16.00;94.50;;;;;;1947779;73;21124;-60
2022/10/09 08:27:28;;;;;;;12.00;9.33;;;16.10;94.40;;;;;;1945868;73;21021;-60
2022/10/09 08:29:58;;;;;;;16.15;11.90;;;16.20;94.30;;;;;;1936155;73;21107;-60
2022/10/09 08:32:28;;;;;;;14.53;9.65;;;16.30;94.30;;;;;;1951423;73;21089;-61
2022/10/09 08:35:11;;;;;;;10.78;7.97;;;16.30;94.10;;;;;;1948849;73;21092;-60
2022/10/09 08:37:42;;;;;;;16.12;8.48;;;16.30;94.10;;;;;;1929824;73;21006;-61
2022/10/09 08:40:17;;;;;;;12.10;8.70;;;16.30;94.10;;;;;;1949920;73;21021;-61
2022/10/09 08:42:58;;;;;;;17.52;9.93;;;16.40;94.10;;;;;;1920706;73;21069;-59
2022/10/09 08:45:29;;;;;;;13.25;9.10;;;16.40;94.00;;;;;;1946621;72;21037;-60
2022/10/09 08:48:04;;;;;;;22.05;9.83;;;16.40;94.10;;;;;;1942730;73;21499;-60
2022/10/09 08:50:37;;;;;;;15.43;9.03;;;16.40;94.00;;;;;;1943850;73;21464;-59
2022/10/09 08:53:12;;;;;;;11.78;8.35;;;16.40;94.10;;;;;;1947458;73;21472;-59
2022/10/09 08:55:47;;;;;;;13.30;8.78;;;16.30;94.00;;;;;;1948668;73;21064;-59
2022/10/09 08:58:19;;;;;;;15.20;8.95;;;16.30;94.10;;;;;;1949878;73;21102;-59
2022/10/09 09:00:54;;;;;;;16.23;9.70;;;16.30;94.20;;;;;;1945943;73;21009;-59
2022/10/09 09:03:27;;;;;;;;;;;16.30;94.40;;;;;;1950215;73;21091;-59
2022/10/09 09:06:05;;;;;;;13.03;9.78;;;16.20;95.20;;;;;;1954069;73;20589;-60
2022/10/09 09:08:46;;;;;;;18.10;12.93;;;16.20;94.70;;;;;;1958532;73;21033;-59
2022/10/09 09:11:41;;;;;;;19.45;12.98;;;16.10;94.40;;;;;;1946745;73;21467;-59
2022/10/09 09:14:25;;;;;;;21.20;15.30;;;16.10;94.50;;;;;;1950888;73;21049;-60
2022/10/09 09:17:04;;;;;;;27.42;17.30;;;16.10;94.70;;;;;;1941374;73;21191;-59
2022/10/09 09:19:42;;;;;;;28.65;17.52;;;16.10;94.50;;;;;;1937764;73;21041;-60
2022/10/09 09:22:16;;;;;;;24.25;15.75;;;16.10;94.90;;;;;;1940104;73;21050;-60
2022/10/09 09:24:48;;;;;;;27.90;16.90;;;16.10;94.80;;;;;;1953153;73;21044;-59
2022/10/09 09:27:19;;;;;;;22.55;17.42;;;16.10;94.90;;;;;;1951952;73;21139;-59
2022/10/09 09:29:58;;;;;;;23.12;15.00;;;16.10;95.00;;;;;;1958890;73;21100;-59
2022/10/09 09:32:29;;;;;;;22.52;14.60;;;16.10;94.80;;;;;;1950138;73;21150;-59
2022/10/09 09:35:04;;;;;;;22.60;14.33;;;16.00;94.70;;;;;;1941297;73;21139;-59
2022/10/09 09:37:33;;;;;;;;;;;16.00;94.80;;;;;;1919972;73;21037;-59
2022/10/09 09:40:02;;;;;;;22.67;15.40;;;16.10;94.90;;;;;;1954426;73;20139;-59
2022/10/09 09:42:32;;;;;;;23.95;14.70;;;16.10;94.80;;;;;;1949259;72;21570;-59
2022/10/09 09:45:05;;;;;;;23.47;15.53;;;16.10;95.00;;;;;;1944920;73;21110;-59
2022/10/09 09:47:43;;;;;;;27.32;17.42;;;16.10;95.30;;;;;;1941108;73;21095;-59
2022/10/09 09:50:12;;;;;;;27.87;16.35;;;16.10;95.20;;;;;;1944874;73;21100;-60
2022/10/09 09:52:44;;;;;;;26.40;16.62;;;16.10;95.10;;;;;;1945853;73;21549;-60
2022/10/09 09:55:26;;;;;;;27.02;16.87;;;16.10;95.80;;;;;;1948326;73;21049;-59
2022/10/09 09:58:04;;;;;;;25.90;15.72;;;16.00;95.60;;;;;;1945088;73;21238;-59
2022/10/09 10:00:35;;;;;;;26.48;17.98;;;16.00;95.30;;;;;;1952335;72;21173;-59
2022/10/09 10:03:13;;;;;;;23.40;16.02;;;16.00;95.40;;;;;;1939711;73;21057;-59
2022/10/09 10:05:44;;;;;;;27.52;17.45;;;16.10;95.80;;;;;;1949862;73;21157;-60
2022/10/09 10:08:34;;;;;;;26.57;16.35;;;16.10;95.60;;;;;;1945387;73;21468;-59
2022/10/09 10:11:07;;;;;;;20.55;14.55;;;16.10;95.40;;;;;;1943978;73;21276;-59
2022/10/09 10:13:42;;;;;;;24.12;15.63;;;16.10;95.50;;;;;;1951822;73;21042;-59
2022/10/09 10:16:14;;;;;;;27.07;18.27;;;16.10;95.20;;;;;;1950483;73;21512;-59
2022/10/09 10:18:44;;;;;;;31.65;22.98;;;16.10;95.30;;;;;;1948626;73;21168;-59
2022/10/09 10:21:16;;;;;;;62.85;45.63;;;16.20;95.20;;;;;;1947378;73;21068;-59
2022/10/09 10:23:57;;;;;;;26.45;20.85;;;16.20;95.10;;;;;;1939775;73;21476;-59
2022/10/09 10:26:33;;;;;;;25.80;20.72;;;16.20;95.10;;;;;;1949196;73;21034;-59
2022/10/09 10:29:21;;;;;;;25.90;17.87;;;16.30;95.20;;;;;;1945590;73;21084;-60
2022/10/09 10:31:56;;;;;;;28.70;20.10;;;16.30;95.00;;;;;;1956855;73;21045;-59
2022/10/09 11:18:46;;;;;;;17.70;13.50;;;16.60;95.80;;;;;;1959029;73;25749;-59
2022/10/09 11:21:27;;;;;;;17.27;13.22;;;16.60;95.60;;;;;;1918171;74;21100;-59
2022/10/09 11:24:05;;;;;;;19.57;13.93;;;16.60;95.40;;;;;;1918492;74;21144;-57
2022/10/09 11:26:43;;;;;;;21.75;14.63;;;16.50;95.50;;;;;;1917918;73;21039;-58
2022/10/09 11:29:18;;;;;;;19.65;15.40;;;16.60;95.50;;;;;;1918191;74;21481;-57
2022/10/09 11:31:56;;;;;;;17.90;13.88;;;16.50;95.40;;;;;;1917949;74;21106;-58
2022/10/09 11:34:31;;;;;;;14.98;12.30;;;16.60;95.50;;;;;;1918269;74;21015;-58
2022/10/09 11:37:03;;;;;;;41.30;19.67;;;16.60;95.60;;;;;;1916866;74;21156;-57
2022/10/09 11:39:33;;;;;;;15.45;12.60;;;16.60;95.80;;;;;;1918231;73;21078;-57
2022/10/09 11:42:04;;;;;;;21.80;14.18;;;16.70;95.70;;;;;;1918367;75;21104;-58
2022/10/09 11:44:36;;;;;;;20.32;14.03;;;16.70;95.50;;;;;;1918252;75;21003;-58
2022/10/09 11:47:14;;;;;;;19.60;13.68;;;16.70;95.60;;;;;;1918349;74;21003;-58
2022/10/09 11:50:20;;;;;;;16.97;13.32;;;16.80;95.50;;;;;;1918021;74;21042;-58
2022/10/09 11:53:01;;;;;;;17.77;13.13;;;16.80;95.60;;;;;;1918418;75;21167;-58
2022/10/09 11:55:32;;;;;;;20.40;13.30;;;16.90;95.40;;;;;;1918183;75;21117;-57
2022/10/09 11:58:22;;;;;;;15.85;13.53;;;16.90;95.60;;;;;;1918251;75;21147;-57
2022/10/09 12:00:55;;;;;;;20.37;13.62;;;16.90;95.50;;;;;;1918230;75;21080;-58
2022/10/09 12:03:36;;;;;;;19.87;14.18;;;16.90;95.40;;;;;;1918212;75;21039;-58
2022/10/09 12:06:13;;;;;;;17.87;12.73;;;16.90;95.40;;;;;;1918398;75;21449;-58
2022/10/09 12:09:06;;;;;;;16.05;12.85;;;17.00;95.30;;;;;;1918502;75;21077;-58
2022/10/09 12:11:35;;;;;;;15.53;13.62;;;17.00;95.20;;;;;;1918325;75;21011;-58
2022/10/09 12:14:07;;;;;;;20.17;13.45;;;17.00;95.20;;;;;;1918180;75;21007;-58
2022/10/09 12:16:39;;;;;;;15.40;12.55;;;17.10;95.20;;;;;;1917705;74;21043;-56
2022/10/09 12:19:23;;;;;;;18.00;12.90;;;17.10;95.20;;;;;;1905887;75;21124;-58
2022/10/09 12:22:21;;;;;;;15.95;12.30;;;17.20;95.20;;;;;;1905938;75;21449;-58
2022/10/09 12:24:59;;;;;;;16.82;11.95;;;17.20;95.10;;;;;;1906011;75;21533;-58
2022/10/09 12:27:31;;;;;;;14.18;11.05;;;17.20;95.00;;;;;;1905985;75;21036;-58
2022/10/09 12:30:12;;;;;;;15.50;12.13;;;17.20;95.00;;;;;;1905206;74;21055;-57
2022/10/09 12:32:54;;;;;;;16.27;12.37;;;17.20;95.00;;;;;;1902507;75;21074;-58
2022/10/09 12:35:26;;;;;;;15.32;13.00;;;17.20;94.90;;;;;;1905067;74;21035;-58
2022/10/09 12:37:56;;;;;;;14.68;12.75;;;17.30;94.90;;;;;;1905147;75;21003;-58
2022/10/09 12:40:28;;;;;;;13.25;10.08;;;17.30;94.90;;;;;;1905214;75;21089;-58
2022/10/09 12:42:59;;;;;;;14.43;10.35;;;17.30;95.10;;;;;;1905243;75;20987;-58
2022/10/09 12:45:30;;;;;;;18.37;10.93;;;17.30;94.80;;;;;;1905208;75;20979;-58
2022/10/09 12:48:02;;;;;;;14.25;11.68;;;17.30;94.80;;;;;;1905376;75;21383;-58
2022/10/09 12:50:35;;;;;;;18.62;12.37;;;17.30;94.70;;;;;;1904754;74;21024;-58
2022/10/09 12:53:09;;;;;;;20.75;12.65;;;17.30;94.80;;;;;;1905391;75;21097;-58
2022/10/09 12:55:44;;;;;;;18.00;12.55;;;17.30;94.80;;;;;;1905216;75;21161;-58
2022/10/09 12:58:16;;;;;;;;;;;17.30;94.90;;;;;;1908129;74;21097;-58
2022/10/09 13:00:48;;;;;;;22.02;12.25;;;17.30;95.10;;;;;;1905322;75;20089;-58
2022/10/09 13:03:38;;;;;;;19.92;13.08;;;17.30;94.90;;;;;;1905272;75;20979;-58
2022/10/09 13:06:16;;;;;;;15.18;12.45;;;17.20;94.80;;;;;;1905265;75;21000;-58
2022/10/09 13:08:47;;;;;;;22.02;13.53;;;17.30;94.80;;;;;;1905394;75;21077;-58
2022/10/09 13:11:32;;;;;;;16.70;13.48;;;17.30;94.90;;;;;;1905167;74;21048;-58
2022/10/09 13:14:01;;;;;;;16.75;11.48;;;17.30;94.80;;;;;;1905511;75;21035;-58
2022/10/09 13:16:46;;;;;;;26.70;12.40;;;17.30;94.90;;;;;;1905111;74;21509;-57
2022/10/09 13:19:27;;;;;;;16.10;10.98;;;17.30;94.80;;;;;;1905167;75;21061;-58
2022/10/09 13:22:02;;;;;;;12.03;10.23;;;17.40;94.80;;;;;;1905220;75;21043;-58
2022/10/09 13:24:32;;;;;;;19.80;10.85;;;17.40;95.00;;;;;;1905097;74;21548;-58
2022/10/09 13:27:04;;;;;;;15.32;10.82;;;17.40;94.60;;;;;;1905255;75;21124;-58
2022/10/09 13:29:33;;;;;;;15.68;11.03;;;17.40;94.70;;;;;;1905251;75;21003;-58
2022/10/09 13:32:03;;;;;;;19.37;11.73;;;17.50;94.60;;;;;;1905241;75;21007;-58
2022/10/09 13:34:33;;;;;;;19.73;11.15;;;17.50;94.50;;;;;;1905132;75;21038;-58
2022/10/09 13:37:03;;;;;;;13.62;11.53;;;17.60;94.50;;;;;;1905220;75;21032;-58
2022/10/09 13:39:32;;;;;;;18.92;11.05;;;17.60;94.50;;;;;;1905240;75;21008;-58
2022/10/09 13:42:03;;;;;;;20.35;11.88;;;17.60;94.50;;;;;;1905214;75;21069;-58
2022/10/09 13:44:32;;;;;;;20.48;11.78;;;17.60;94.40;;;;;;1905213;75;21023;-58
2022/10/09 13:47:02;;;;;;;22.87;12.68;;;17.60;94.40;;;;;;1905372;75;20987;-58
2022/10/09 13:49:32;;;;;;;23.62;11.90;;;17.60;94.40;;;;;;1905433;75;21024;-58